createdAt,value
2022-09-28T00:01:55.937Z,7.50
2022-09-28T00:04:24.148Z,7.50
2022-09-28T00:06:52.216Z,7.60
2022-09-28T00:09:21.685Z,7.60
2022-09-28T00:11:49.776Z,7.60
2022-09-28T00:14:18.080Z,7.60
2022-09-28T00:16:47.251Z,7.80
2022-09-28T00:19:15.494Z,7.70
2022-09-28T00:21:44.120Z,7.70
2022-09-28T00:24:15.991Z,7.80
2022-09-28T00:26:47.877Z,7.90
2022-09-28T00:29:22.317Z,7.90
2022-09-28T00:31:52.503Z,7.90
2022-09-28T00:34:21.167Z,7.80
2022-09-28T00:36:49.318Z,7.90
2022-09-28T00:39:18.286Z,7.90
2022-09-28T00:41:48.277Z,7.80
2022-09-28T00:44:39.769Z,7.80
2022-09-28T00:47:31.272Z,7.80
2022-09-28T00:50:04.305Z,7.80
2022-09-28T00:52:37.126Z,7.70
2022-09-28T00:55:09.595Z,7.70
2022-09-28T00:57:42.291Z,7.70
2022-09-28T01:00:12.099Z,7.70
2022-09-28T01:02:40.400Z,7.70
2022-09-28T01:05:10.505Z,7.70
2022-09-28T01:07:39.213Z,7.70
2022-09-28T01:10:08.583Z,7.70
2022-09-28T01:12:38.039Z,7.70
2022-09-28T01:15:07.345Z,7.70
2022-09-28T01:17:48.897Z,7.60
2022-09-28T01:20:40.591Z,7.60
2022-09-28T01:23:33.733Z,7.60
2022-09-28T01:26:44.638Z,7.60
2022-09-28T01:29:20.165Z,7.60
2022-09-28T01:31:54.740Z,7.60
2022-09-28T01:34:28.603Z,7.60
2022-09-28T01:36:59.214Z,7.70
2022-09-28T01:39:32.414Z,7.60
2022-09-28T01:42:06.755Z,7.70
2022-09-28T01:44:39.992Z,7.60
2022-09-28T01:47:11.505Z,7.50
2022-09-28T01:49:45.494Z,7.40
2022-09-28T01:52:24.476Z,7.40
2022-09-28T01:54:59.067Z,7.40
2022-09-28T01:57:35.913Z,7.30
2022-09-28T02:00:08.245Z,7.30
2022-09-28T02:02:41.488Z,7.20
2022-09-28T02:05:15.241Z,7.20
2022-09-28T02:07:48.490Z,7.20
2022-09-28T02:10:21.155Z,7.10
2022-09-28T02:12:55.671Z,7.10
2022-09-28T02:15:29.255Z,7.10
2022-09-28T02:17:57.852Z,7.10
2022-09-28T02:20:26.318Z,7.20
2022-09-28T02:22:58.657Z,7.20
2022-09-28T02:25:32.261Z,7.20
2022-09-28T02:28:03.040Z,7.20
2022-09-28T02:30:32.251Z,7.20
2022-09-28T02:33:06.620Z,7.20
2022-09-28T02:35:35.449Z,7.30
2022-09-28T02:38:03.761Z,7.30
2022-09-28T02:40:34.346Z,7.40
2022-09-28T02:43:14.861Z,7.40
2022-09-28T02:45:57.722Z,7.40
2022-09-28T02:48:43.974Z,7.40
2022-09-28T02:51:22.267Z,7.40
2022-09-28T02:54:07.226Z,7.40
2022-09-28T02:56:54.480Z,7.50
2022-09-28T02:59:37.059Z,7.50
2022-09-28T03:02:14.643Z,7.50
2022-09-28T03:04:50.005Z,7.50
2022-09-28T03:07:26.211Z,7.50
2022-09-28T03:10:02.579Z,7.50
2022-09-28T03:12:33.231Z,7.50
2022-09-28T03:15:10.515Z,7.50
2022-09-28T03:17:38.762Z,7.40
2022-09-28T03:20:08.049Z,7.40
2022-09-28T03:22:36.069Z,7.50
2022-09-28T03:25:04.135Z,7.40
2022-09-28T03:27:32.270Z,7.40
2022-09-28T03:30:00.448Z,7.40
2022-09-28T03:32:29.880Z,7.40
2022-09-28T03:34:57.870Z,7.40
2022-09-28T03:37:25.880Z,7.30
2022-09-28T03:39:53.873Z,7.30
2022-09-28T03:42:22.108Z,7.30
2022-09-28T03:44:50.124Z,7.30
2022-09-28T03:47:19.383Z,7.30
2022-09-28T03:49:48.774Z,7.30
2022-09-28T03:52:16.974Z,7.30
2022-09-28T03:54:49.049Z,7.20
2022-09-28T03:57:17.523Z,7.20
2022-09-28T03:59:45.532Z,7.20
2022-09-28T04:02:13.598Z,7.10
2022-09-28T04:04:41.627Z,7.10
2022-09-28T04:07:11.023Z,7.00
2022-09-28T04:09:39.048Z,7.00
2022-09-28T04:12:08.012Z,6.90
2022-09-28T04:14:36.283Z,7.00
2022-09-28T04:17:05.583Z,6.90
2022-09-28T04:19:33.756Z,6.90
2022-09-28T04:22:02.319Z,7.00
2022-09-28T04:24:31.748Z,7.00
2022-09-28T04:27:19.716Z,7.00
2022-09-28T04:29:46.742Z,7.00
2022-09-28T04:32:14.731Z,7.00
2022-09-28T04:34:44.256Z,7.00
2022-09-28T04:37:12.401Z,7.00
2022-09-28T04:39:45.088Z,7.10
2022-09-28T04:42:15.863Z,7.00
2022-09-28T04:44:43.912Z,7.00
2022-09-28T04:47:11.977Z,7.00
2022-09-28T04:49:39.983Z,7.00
2022-09-28T04:52:08.352Z,6.90
2022-09-28T04:54:36.379Z,6.90
2022-09-28T04:57:06.241Z,6.90
2022-09-28T04:59:40.308Z,6.80
2022-09-28T05:02:08.357Z,6.80
2022-09-28T05:04:36.369Z,6.80
2022-09-28T05:07:04.408Z,6.80
2022-09-28T05:09:36.350Z,6.70
2022-09-28T05:12:09.355Z,6.70
2022-09-28T05:14:37.338Z,6.60
2022-09-28T05:17:05.431Z,6.60
2022-09-28T05:19:34.873Z,6.60
2022-09-28T05:22:04.756Z,6.60
2022-09-28T05:24:32.784Z,6.50
2022-09-28T05:27:00.805Z,6.50
2022-09-28T05:29:32.170Z,6.50
2022-09-28T05:32:01.625Z,6.40
2022-09-28T05:34:29.932Z,6.40
2022-09-28T05:36:57.948Z,6.40
2022-09-28T05:39:25.919Z,6.40
2022-09-28T05:41:53.916Z,6.40
2022-09-28T05:44:21.907Z,6.40
2022-09-28T05:46:51.478Z,6.40
2022-09-28T05:49:19.472Z,6.30
2022-09-28T05:51:47.487Z,6.30
2022-09-28T05:54:15.546Z,6.40
2022-09-28T05:56:43.638Z,6.30
2022-09-28T05:59:12.161Z,6.40
2022-09-28T06:01:40.284Z,6.40
2022-09-28T06:04:10.058Z,6.50
2022-09-28T06:06:38.926Z,6.50
2022-09-28T06:09:06.927Z,6.50
2022-09-28T06:11:34.954Z,6.50
2022-09-28T06:14:02.942Z,6.50
2022-09-28T06:16:31.025Z,6.60
2022-09-28T06:18:59.140Z,6.60
2022-09-28T06:21:28.519Z,6.60
2022-09-28T06:23:56.527Z,6.60
2022-09-28T06:26:24.582Z,6.70
2022-09-28T06:28:52.576Z,6.70
2022-09-28T06:31:23.838Z,6.70
2022-09-28T06:33:52.351Z,6.70
2022-09-28T06:36:21.094Z,6.70
2022-09-28T06:38:50.662Z,6.70
2022-09-28T06:41:18.720Z,6.80
2022-09-28T06:43:48.510Z,6.80
2022-09-28T06:46:16.725Z,6.90
2022-09-28T06:48:45.163Z,6.90
2022-09-28T06:51:13.186Z,7.00
2022-09-28T06:53:41.207Z,7.10
2022-09-28T06:56:12.188Z,7.10
2022-09-28T06:58:40.177Z,7.20
2022-09-28T07:01:08.661Z,7.20
2022-09-28T07:03:36.779Z,7.30
2022-09-28T07:06:04.946Z,7.50
2022-09-28T07:08:32.927Z,7.50
2022-09-28T07:11:01.457Z,7.40
2022-09-28T07:13:51.636Z,7.50
2022-09-28T07:16:24.089Z,7.60
2022-09-28T07:18:54.701Z,7.70
2022-09-28T07:21:29.918Z,7.90
2022-09-28T07:23:59.975Z,7.80
2022-09-28T07:26:28.006Z,7.90
2022-09-28T07:28:57.375Z,8.00
2022-09-28T07:31:26.370Z,8.00
2022-09-28T07:33:55.343Z,8.10
2022-09-28T07:36:23.553Z,8.20
2022-09-28T07:38:51.855Z,8.20
2022-09-28T07:41:27.007Z,8.40
2022-09-28T07:43:55.449Z,8.40
2022-09-28T07:46:24.960Z,8.30
2022-09-28T07:48:53.698Z,8.30
2022-09-28T07:51:22.228Z,8.20
2022-09-28T07:53:50.262Z,8.20
2022-09-28T07:56:20.460Z,8.10
2022-09-28T07:58:49.293Z,8.10
2022-09-28T08:01:17.701Z,8.10
2022-09-28T08:03:48.097Z,8.10
2022-09-28T08:06:17.810Z,8.30
2022-09-28T08:08:46.480Z,8.30
2022-09-28T08:11:16.734Z,8.40
2022-09-28T08:13:45.763Z,8.60
2022-09-28T08:16:14.084Z,8.60
2022-09-28T08:18:42.203Z,8.70
2022-09-28T08:21:29.661Z,8.70
2022-09-28T08:23:57.739Z,8.80
2022-09-28T08:26:25.949Z,9.00
2022-09-28T08:28:53.972Z,9.20
2022-09-28T08:31:22.116Z,9.30
2022-09-28T08:33:54.366Z,9.20
2022-09-28T08:36:24.018Z,9.10
2022-09-28T08:38:52.203Z,9.20
2022-09-28T08:41:26.153Z,9.30
2022-09-28T08:44:03.812Z,9.40
2022-09-28T08:46:36.378Z,9.60
2022-09-28T08:49:26.369Z,9.80
2022-09-28T08:52:01.967Z,9.90
2022-09-28T08:54:39.011Z,9.90
2022-09-28T08:57:12.612Z,9.70
2022-09-28T08:59:49.927Z,9.80
2022-09-28T09:02:23.001Z,9.80
2022-09-28T09:04:51.985Z,9.90
2022-09-28T09:07:37.119Z,10.10
2022-09-28T09:10:17.784Z,10.20
2022-09-28T09:15:48.787Z,9.80
2022-09-28T09:18:26.035Z,9.60
2022-09-28T09:20:57.665Z,9.40
2022-09-28T09:23:37.264Z,9.40
2022-09-28T09:26:14.557Z,9.30
2022-09-28T09:29:14.778Z,9.20
2022-09-28T09:32:04.443Z,9.10
2022-09-28T09:34:56.212Z,9.10
2022-09-28T09:37:41.632Z,9.10
2022-09-28T09:40:24.896Z,9.10
2022-09-28T09:43:07.336Z,9.10
2022-09-28T09:45:56.350Z,9.10
2022-09-28T09:48:29.434Z,9.10
2022-09-28T09:51:02.803Z,9.30
2022-09-28T09:53:38.726Z,9.40
2022-09-28T09:56:15.473Z,9.50
2022-09-28T09:58:48.741Z,9.90
2022-09-28T10:01:21.316Z,10.20
2022-09-28T10:03:51.025Z,10.30
2022-09-28T10:06:23.156Z,10.40
2022-09-28T10:08:59.836Z,10.20
2022-09-28T10:11:36.160Z,10.00
2022-09-28T10:14:04.752Z,10.00
2022-09-28T10:16:34.223Z,10.00
2022-09-28T10:19:02.838Z,10.10
2022-09-28T10:21:32.641Z,10.10
2022-09-28T10:24:03.324Z,10.10
2022-09-28T10:26:36.411Z,10.10
2022-09-28T10:29:13.030Z,10.10
2022-09-28T10:31:42.888Z,10.10
2022-09-28T10:34:14.980Z,10.00
2022-09-28T10:36:51.744Z,10.00
2022-09-28T10:39:36.551Z,10.00
2022-09-28T10:42:08.951Z,10.10
2022-09-28T10:44:52.833Z,10.10
2022-09-28T10:47:23.180Z,10.20
2022-09-28T10:49:52.792Z,10.70
2022-09-28T10:52:39.903Z,11.00
2022-09-28T10:55:27.559Z,11.20
2022-09-28T10:57:57.418Z,11.20
2022-09-28T11:00:35.152Z,11.20
2022-09-28T11:03:03.726Z,11.20
2022-09-28T11:05:36.787Z,11.10
2022-09-28T11:08:08.355Z,11.30
2022-09-28T11:10:37.262Z,11.10
2022-09-28T11:13:10.708Z,10.80
2022-09-28T11:15:44.161Z,10.70
2022-09-28T11:18:28.274Z,10.70
2022-09-28T11:21:12.529Z,10.70
2022-09-28T11:23:44.214Z,10.90
2022-09-28T11:26:17.656Z,11.00
2022-09-28T11:28:52.760Z,11.00
2022-09-28T11:31:27.505Z,10.90
2022-09-28T11:34:13.932Z,10.80
2022-09-28T11:37:02.271Z,10.70
2022-09-28T11:39:39.156Z,10.80
2022-09-28T11:42:17.114Z,10.70
2022-09-28T11:44:48.214Z,10.60
2022-09-28T11:47:52.509Z,10.60
2022-09-28T11:50:29.905Z,10.70
2022-09-28T11:53:06.168Z,10.80
2022-09-28T11:55:39.743Z,10.70
2022-09-28T11:58:15.416Z,10.80
2022-09-28T12:00:50.676Z,10.90
2022-09-28T12:03:23.493Z,11.00
2022-09-28T12:05:57.080Z,11.00
2022-09-28T12:08:27.892Z,10.90
2022-09-28T12:11:01.751Z,10.80
2022-09-28T12:13:34.318Z,10.80
2022-09-28T12:16:27.585Z,10.80
2022-09-28T12:21:39.441Z,10.80
2022-09-28T12:24:17.188Z,10.80
2022-09-28T12:26:53.163Z,10.70
2022-09-28T12:29:27.626Z,10.70
2022-09-28T12:32:05.561Z,10.70
2022-09-28T12:34:33.854Z,10.80
2022-09-28T12:37:24.279Z,10.90
2022-09-28T12:40:12.261Z,11.00
2022-09-28T12:42:55.649Z,11.00
2022-09-28T12:45:38.632Z,11.00
2022-09-28T12:48:43.795Z,11.20
2022-09-28T12:51:24.820Z,11.40
2022-09-28T12:54:02.884Z,11.50
2022-09-28T12:56:39.371Z,11.30
2022-09-28T12:59:19.911Z,11.30
2022-09-28T13:02:02.484Z,11.30
2022-09-28T13:05:07.854Z,11.20
2022-09-28T13:07:45.190Z,11.10
2022-09-28T13:10:23.641Z,11.20
2022-09-28T13:13:04.644Z,11.20
2022-09-28T13:15:45.321Z,11.20
2022-09-28T13:18:21.065Z,11.20
2022-09-28T13:21:18.661Z,11.20
2022-09-28T13:23:48.748Z,11.40
2022-09-28T13:26:23.671Z,11.70
2022-09-28T13:28:55.693Z,12.30
2022-09-28T13:31:31.734Z,12.70
2022-09-28T13:34:04.299Z,13.00
2022-09-28T13:36:47.220Z,13.50
2022-09-28T13:39:53.148Z,13.80
2022-09-28T13:42:51.809Z,14.20
2022-09-28T13:45:50.113Z,14.10
2022-09-28T13:48:29.032Z,14.10
2022-09-28T13:51:33.001Z,14.00
2022-09-28T13:54:20.058Z,13.70
2022-09-28T13:56:57.763Z,13.40
2022-09-28T13:59:28.268Z,13.10
2022-09-28T14:02:06.755Z,13.10
2022-09-28T14:04:57.189Z,13.10
2022-09-28T14:10:19.198Z,12.40
2022-09-28T14:12:49.591Z,12.20
2022-09-28T14:15:40.506Z,12.10
2022-09-28T14:18:26.835Z,11.90
2022-09-28T14:21:33.647Z,12.20
2022-09-28T14:24:26.665Z,13.10
2022-09-28T14:27:20.980Z,14.30
2022-09-28T14:30:05.591Z,14.40
2022-09-28T14:32:37.504Z,14.40
2022-09-28T14:35:09.693Z,14.30
2022-09-28T14:38:08.501Z,14.20
2022-09-28T14:41:12.910Z,13.60
2022-09-28T14:44:04.633Z,13.00
2022-09-28T14:46:35.529Z,12.80
2022-09-28T14:49:27.873Z,12.60
2022-09-28T14:52:57.846Z,12.50
2022-09-28T14:55:32.179Z,12.40
2022-09-28T14:58:00.835Z,12.50
2022-09-28T15:00:32.071Z,12.50
2022-09-28T15:03:07.802Z,12.60
2022-09-28T15:05:44.195Z,12.70
2022-09-28T15:08:12.935Z,12.80
2022-09-28T15:10:46.538Z,12.70
2022-09-28T15:13:25.038Z,12.70
2022-09-28T15:15:59.018Z,12.40
2022-09-28T15:18:49.561Z,12.30
2022-09-28T15:21:17.893Z,12.20
2022-09-28T15:23:47.996Z,12.20
2022-09-28T15:26:27.561Z,12.10
2022-09-28T15:28:56.366Z,12.10
2022-09-28T15:31:28.118Z,12.00
2022-09-28T15:34:13.809Z,12.00
2022-09-28T15:36:43.340Z,11.90
2022-09-28T15:39:16.067Z,11.90
2022-09-28T15:41:45.047Z,11.90
2022-09-28T15:44:29.376Z,11.80
2022-09-28T15:47:09.247Z,11.80
2022-09-28T15:49:41.172Z,11.80
2022-09-28T15:52:24.391Z,11.90
2022-09-28T15:54:52.792Z,11.90
2022-09-28T15:57:36.881Z,11.80
2022-09-28T16:00:08.272Z,11.80
2022-09-28T16:02:37.724Z,11.80
2022-09-28T16:05:29.905Z,11.70
2022-09-28T16:07:57.937Z,11.70
2022-09-28T16:10:33.601Z,11.60
2022-09-28T16:13:20.076Z,11.70
2022-09-28T16:15:55.465Z,11.80
2022-09-28T16:18:26.018Z,11.70
2022-09-28T16:20:56.172Z,11.80
2022-09-28T16:23:27.768Z,12.00
2022-09-28T16:25:59.850Z,12.20
2022-09-28T16:28:50.833Z,12.10
2022-09-28T16:31:37.307Z,11.90
2022-09-28T16:34:20.803Z,11.90
2022-09-28T16:36:50.097Z,12.10
2022-09-28T16:39:19.752Z,12.20
2022-09-28T16:41:51.874Z,12.10
2022-09-28T16:44:26.020Z,11.90
2022-09-28T16:46:56.977Z,11.70
2022-09-28T16:49:26.868Z,11.60
2022-09-28T16:51:55.174Z,11.60
2022-09-28T16:54:41.984Z,11.60
2022-09-28T16:57:12.597Z,11.50
2022-09-28T16:59:40.783Z,11.50
2022-09-28T17:05:11.173Z,11.40
2022-09-28T17:07:39.663Z,11.30
2022-09-28T17:10:16.468Z,11.20
2022-09-28T17:12:44.572Z,11.20
2022-09-28T17:15:17.979Z,11.10
2022-09-28T17:17:46.040Z,11.10
2022-09-28T17:20:22.464Z,11.10
2022-09-28T17:22:50.608Z,11.20
2022-09-28T17:25:19.114Z,11.20
2022-09-28T17:27:49.066Z,11.20
2022-09-28T17:30:20.248Z,11.20
2022-09-28T17:32:51.576Z,11.20
2022-09-28T17:35:25.291Z,11.20
2022-09-28T17:37:54.317Z,11.20
2022-09-28T17:40:23.866Z,11.30
2022-09-28T17:42:55.180Z,11.30
2022-09-28T17:45:25.816Z,11.30
2022-09-28T17:47:53.919Z,11.20
2022-09-28T17:50:26.081Z,11.10
2022-09-28T17:52:54.767Z,11.00
2022-09-28T17:55:24.611Z,10.90
2022-09-28T17:57:52.703Z,10.80
2022-09-28T18:00:20.751Z,10.80
2022-09-28T18:02:48.852Z,10.70
2022-09-28T18:05:16.934Z,10.60
2022-09-28T18:07:47.855Z,10.60
2022-09-28T18:10:17.709Z,10.60
2022-09-28T18:12:45.767Z,10.60
2022-09-28T18:15:13.864Z,10.60
2022-09-28T18:17:42.150Z,10.60
2022-09-28T18:20:12.300Z,10.50
2022-09-28T18:22:40.399Z,10.50
2022-09-28T18:25:11.102Z,10.40
2022-09-28T18:27:39.154Z,10.40
2022-09-28T18:30:09.325Z,10.40
2022-09-28T18:32:38.029Z,10.40
2022-09-28T18:35:07.546Z,10.40
2022-09-28T18:37:37.429Z,10.40
2022-09-28T18:40:06.095Z,10.40
2022-09-28T18:42:35.597Z,10.40
2022-09-28T18:45:03.844Z,10.40
2022-09-28T18:47:33.166Z,10.40
2022-09-28T18:50:01.304Z,10.40
2022-09-28T18:52:29.352Z,10.40
2022-09-28T18:54:57.526Z,10.40
2022-09-28T18:57:25.569Z,10.50
2022-09-28T18:59:54.928Z,10.50
2022-09-28T19:02:23.095Z,10.50
2022-09-28T19:04:51.204Z,10.40
2022-09-28T19:07:19.286Z,10.40
2022-09-28T19:09:47.291Z,10.40
2022-09-28T19:12:15.588Z,10.40
2022-09-28T19:14:43.697Z,10.30
2022-09-28T19:17:13.241Z,10.30
2022-09-28T19:19:42.714Z,10.30
2022-09-28T19:22:10.903Z,10.40
2022-09-28T19:24:38.914Z,10.40
2022-09-28T19:27:07.217Z,10.40
2022-09-28T19:29:35.274Z,10.40
2022-09-28T19:32:04.478Z,10.40
2022-09-28T19:34:33.913Z,10.40
2022-09-28T19:37:03.947Z,10.40
2022-09-28T19:39:32.310Z,10.30
2022-09-28T19:42:01.253Z,10.30
2022-09-28T19:44:31.194Z,10.30
2022-09-28T19:47:01.205Z,10.30
2022-09-28T19:49:33.257Z,10.30
2022-09-28T19:52:18.201Z,10.30
2022-09-28T19:54:56.638Z,10.30
2022-09-28T19:57:26.011Z,10.30
2022-09-28T19:59:57.820Z,10.30
2022-09-28T20:02:29.236Z,10.30
2022-09-28T20:04:57.464Z,10.30
2022-09-28T20:07:26.865Z,10.30
2022-09-28T20:09:54.934Z,10.30
2022-09-28T20:12:23.354Z,10.30
2022-09-28T20:14:51.399Z,10.30
2022-09-28T20:17:21.715Z,10.30
2022-09-28T20:19:51.760Z,10.30
2022-09-28T20:22:20.371Z,10.20
2022-09-28T20:24:49.806Z,10.20
2022-09-28T20:27:17.817Z,10.20
2022-09-28T20:29:45.876Z,10.20
2022-09-28T20:32:14.231Z,10.20
2022-09-28T20:34:42.286Z,10.20
2022-09-28T20:37:12.464Z,10.10
2022-09-28T20:39:44.811Z,10.10
2022-09-28T20:42:15.541Z,10.10
2022-09-28T20:44:43.960Z,10.20
2022-09-28T20:47:12.172Z,10.20
2022-09-28T20:49:40.219Z,10.00
2022-09-28T20:52:08.278Z,10.00
2022-09-28T20:54:37.924Z,10.00
2022-09-28T20:57:17.225Z,10.00
2022-09-28T20:59:49.795Z,9.90
2022-09-28T21:02:21.794Z,9.80
2022-09-28T21:04:49.909Z,9.70
2022-09-28T21:07:17.946Z,9.60
2022-09-28T21:09:45.981Z,9.60
2022-09-28T21:12:15.361Z,9.50
2022-09-28T21:14:43.403Z,9.50
2022-09-28T21:17:12.810Z,9.40
2022-09-28T21:19:40.859Z,9.30
2022-09-28T21:22:08.868Z,9.30
2022-09-28T21:24:36.982Z,9.20
2022-09-28T21:27:05.218Z,9.10
2022-09-28T21:29:33.267Z,9.10
2022-09-28T21:32:01.426Z,9.10
2022-09-28T21:34:30.860Z,9.10
2022-09-28T21:36:58.880Z,9.10
2022-09-28T21:39:26.927Z,8.90
2022-09-28T21:41:54.956Z,8.90
2022-09-28T21:44:22.972Z,8.70
2022-09-28T21:46:50.997Z,8.70
2022-09-28T21:49:19.595Z,8.60
2022-09-28T21:51:48.965Z,8.50
2022-09-28T21:54:17.159Z,8.40
2022-09-28T21:56:45.218Z,8.30
2022-09-28T21:59:13.243Z,8.20
2022-09-28T22:01:42.784Z,8.10
2022-09-28T22:04:11.637Z,8.00
2022-09-28T22:06:39.790Z,7.90
2022-09-28T22:09:09.309Z,7.80
2022-09-28T22:11:38.194Z,7.70
2022-09-28T22:14:06.234Z,7.70
2022-09-28T22:16:34.247Z,7.60
2022-09-28T22:19:02.305Z,7.60
2022-09-28T22:21:32.701Z,7.50
2022-09-28T22:24:01.991Z,7.50
2022-09-28T22:26:33.016Z,7.50
2022-09-28T22:29:02.800Z,7.40
2022-09-28T22:31:32.916Z,7.50
2022-09-28T22:34:01.430Z,7.40
2022-09-28T22:36:29.912Z,7.40
2022-09-28T22:38:58.714Z,7.30
2022-09-28T22:41:27.104Z,7.20
2022-09-28T22:43:56.848Z,7.20
2022-09-28T22:46:26.717Z,7.30
2022-09-28T22:48:56.595Z,7.20
2022-09-28T22:51:26.366Z,7.20
2022-09-28T22:53:54.481Z,7.20
2022-09-28T22:56:22.573Z,7.20
2022-09-28T22:58:50.670Z,7.10
2022-09-28T23:01:21.771Z,7.10
2022-09-28T23:03:50.854Z,7.10
2022-09-28T23:06:21.032Z,7.10
2022-09-28T23:08:50.488Z,7.10
2022-09-28T23:11:18.902Z,7.10
2022-09-28T23:13:50.224Z,7.10
2022-09-28T23:16:20.551Z,7.10
2022-09-28T23:18:49.233Z,7.10
2022-09-28T23:21:19.051Z,7.20
2022-09-28T23:23:48.302Z,7.20
2022-09-28T23:26:18.072Z,7.20
2022-09-28T23:28:46.627Z,7.10
2022-09-28T23:31:17.309Z,7.10
2022-09-28T23:33:46.867Z,7.10
2022-09-28T23:36:15.346Z,7.10
2022-09-28T23:38:44.422Z,7.10
2022-09-28T23:41:12.460Z,7.10
2022-09-28T23:43:40.575Z,7.00
2022-09-28T23:46:08.699Z,7.00
2022-09-28T23:48:36.749Z,7.00
2022-09-28T23:51:06.658Z,7.10
2022-09-28T23:53:35.038Z,7.00
2022-09-28T23:56:03.324Z,7.00
2022-09-28T23:58:31.334Z,7.00
